Fay, Oklahoma
Current Conditions -  °F | °C
As of 10:15 AM on Wednesday 26 Nov 2014 (Local Time) from KJWG Reporting Station
Clear Clear  
Wind Chill: 43°   Ceiling: Unl
Heat Index: 49°   Visibility: 10mi
Dew Point: 35°   Wind: 16mph
Humidity: 60%   Direction: 310°NW
Pressure: 30.21"   Gusts: 24mph
Location:  35.81°N, 98.66°W
Report Text: KJWG 261615Z AUTO 31014G21KT 10SM CLR 09/02 A3021 RMK AO2 T00920019
Loading
Personal Weather Stations






























Interactive Weather Map New forecast layout! Learn more

10-Day Weather Forecast

Advertisements
Track Severe Weather on mobile